createdAt,value
2018-07-24T00:00:24.276Z,15.5
2018-07-24T00:01:40.244Z,15
2018-07-24T00:02:56.155Z,15
2018-07-24T00:04:12.101Z,15.6
2018-07-24T00:05:28.030Z,15.3
2018-07-24T00:06:43.972Z,15.5
2018-07-24T00:07:59.880Z,15
2018-07-24T00:09:15.746Z,15.2
2018-07-24T00:10:31.659Z,15.5
2018-07-24T00:11:47.581Z,15.6
2018-07-24T00:13:03.457Z,15.8
2018-07-24T00:14:19.355Z,15.7
2018-07-24T00:15:35.250Z,16.1
2018-07-24T00:16:51.197Z,15.8
2018-07-24T00:18:07.071Z,15.8
2018-07-24T00:19:22.941Z,16.4
2018-07-24T00:20:38.821Z,15.9
2018-07-24T00:21:54.754Z,16.200001
2018-07-24T00:23:10.645Z,15.6
2018-07-24T00:24:26.610Z,23.799999
2018-07-24T00:25:42.501Z,38.599998
2018-07-24T00:26:58.422Z,27.700001
2018-07-24T00:28:14.295Z,23.700001
2018-07-24T00:29:30.169Z,46.299999
2018-07-24T00:30:47.020Z,29.299999
2018-07-24T00:32:02.971Z,19.799999
2018-07-24T00:33:18.820Z,18
2018-07-24T00:34:34.713Z,16.4
2018-07-24T00:35:50.596Z,16.299999
2018-07-24T00:37:06.496Z,17.1
2018-07-24T00:38:22.461Z,16
2018-07-24T00:39:38.327Z,17
2018-07-24T00:40:54.196Z,16.799999
2018-07-24T00:42:10.056Z,16
2018-07-24T00:43:25.964Z,16.5
2018-07-24T00:44:41.907Z,17.6
2018-07-24T00:45:57.782Z,16.700001
2018-07-24T00:47:13.663Z,16.4
2018-07-24T00:48:29.550Z,16.799999
2018-07-24T00:49:45.446Z,16
2018-07-24T00:51:01.346Z,16.6
2018-07-24T00:52:18.216Z,17.4
2018-07-24T00:53:34.101Z,16.9
2018-07-24T00:54:50.043Z,17.299999
2018-07-24T00:56:05.944Z,18.9
2018-07-24T00:57:21.810Z,19.299999
2018-07-24T00:58:37.743Z,17.5
2018-07-24T00:59:53.649Z,17.9
2018-07-24T01:01:09.548Z,17.799999
2018-07-24T01:02:25.435Z,18
2018-07-24T01:03:41.335Z,17.200001
2018-07-24T01:04:57.226Z,16.9
2018-07-24T01:06:13.122Z,17
2018-07-24T01:07:29.002Z,16.700001
2018-07-24T01:08:44.889Z,16.5
2018-07-24T01:10:00.755Z,17.200001
2018-07-24T01:11:16.666Z,16.9
2018-07-24T01:12:32.544Z,16.799999
2018-07-24T01:13:48.462Z,17.6
2018-07-24T01:15:04.326Z,16.299999
2018-07-24T01:16:20.216Z,17.299999
2018-07-24T01:17:36.087Z,17.6
2018-07-24T01:18:51.962Z,17.1
2018-07-24T01:20:07.895Z,16.799999
2018-07-24T01:21:23.790Z,17.200001
2018-07-24T01:22:39.715Z,17.799999
2018-07-24T01:23:55.589Z,18.299999
2018-07-24T01:25:11.466Z,17.200001
2018-07-24T01:26:27.377Z,16.299999
2018-07-24T01:27:43.296Z,15.9
2018-07-24T01:28:59.205Z,16
2018-07-24T01:30:15.067Z,16.1
2018-07-24T01:31:30.956Z,16
2018-07-24T01:32:46.904Z,16
2018-07-24T01:34:02.802Z,17.299999
2018-07-24T01:35:18.676Z,16.1
2018-07-24T01:36:34.562Z,17.6
2018-07-24T01:37:50.519Z,15.9
2018-07-24T01:39:06.384Z,17.299999
2018-07-24T01:40:22.280Z,17.5
2018-07-24T01:41:39.137Z,17.799999
2018-07-24T01:42:55.061Z,17.200001
2018-07-24T01:44:10.977Z,18.5
2018-07-24T01:45:26.881Z,18.9
2018-07-24T01:46:42.774Z,18.700001
2018-07-24T01:47:58.657Z,18.700001
2018-07-24T01:49:14.539Z,19.5
2018-07-24T01:50:30.436Z,19.9
2018-07-24T01:51:47.318Z,20.6
2018-07-24T01:53:03.226Z,19.9
2018-07-24T01:54:19.152Z,20.799999
2018-07-24T01:55:35.103Z,22.799999
2018-07-24T01:56:50.987Z,34.400002
2018-07-24T01:58:06.892Z,30.9
2018-07-24T01:59:22.814Z,36.900002
2018-07-24T02:00:38.716Z,30.6
2018-07-24T02:01:54.644Z,22.9
2018-07-24T02:03:10.528Z,24.1
2018-07-24T02:04:26.424Z,21.4
2018-07-24T02:05:42.334Z,21.1
2018-07-24T02:06:58.218Z,20
2018-07-24T02:08:14.133Z,20.200001
2018-07-24T02:09:30.059Z,20.200001
2018-07-24T02:10:45.991Z,19.1
2018-07-24T02:12:01.872Z,19.799999
2018-07-24T02:13:17.733Z,19.9
2018-07-24T02:14:33.797Z,20.799999
2018-07-24T02:15:49.715Z,20.9
2018-07-24T02:17:05.600Z,20.9
2018-07-24T02:18:21.516Z,20.9
2018-07-24T02:19:37.392Z,20.1
2018-07-24T02:21:11.202Z,21
2018-07-24T02:22:27.120Z,20.9
2018-07-24T02:23:43.033Z,20
2018-07-24T02:24:59.009Z,20.4
2018-07-24T02:26:14.884Z,20.4
2018-07-24T02:27:30.740Z,20.299999
2018-07-24T02:28:46.666Z,20.299999
2018-07-24T02:30:02.553Z,19.5
2018-07-24T02:31:18.412Z,20.6
2018-07-24T02:32:34.326Z,20.5
2018-07-24T02:33:50.196Z,20.6
2018-07-24T02:35:06.115Z,20.700001
2018-07-24T02:36:21.988Z,20.4
2018-07-24T02:37:37.888Z,21.200001
2018-07-24T02:38:53.800Z,19.5
2018-07-24T02:40:09.697Z,20.200001
2018-07-24T02:41:25.596Z,20.1
2018-07-24T02:42:41.452Z,19.9
2018-07-24T02:43:57.354Z,20.9
2018-07-24T02:45:13.274Z,20.700001
2018-07-24T02:46:29.154Z,20.799999
2018-07-24T02:47:45.019Z,20.200001
2018-07-24T02:49:00.894Z,20.200001
2018-07-24T02:50:16.914Z,20.4
2018-07-24T02:51:32.809Z,20.6
2018-07-24T02:52:48.697Z,20.1
2018-07-24T02:54:04.580Z,20.6
2018-07-24T02:55:20.494Z,20.5
2018-07-24T02:56:36.409Z,20.4
2018-07-24T02:57:52.278Z,20
2018-07-24T02:59:08.220Z,20.6
2018-07-24T03:00:24.120Z,21
2018-07-24T03:01:40.051Z,20.4
2018-07-24T03:02:55.924Z,19.799999
2018-07-24T03:04:11.807Z,21
2018-07-24T03:05:27.730Z,20.5
2018-07-24T03:06:43.613Z,20.799999
2018-07-24T03:07:59.531Z,20.6
2018-07-24T03:09:15.420Z,21.4
2018-07-24T03:10:31.358Z,20.6
2018-07-24T03:11:47.217Z,21.200001
2018-07-24T03:13:03.119Z,20.700001
2018-07-24T03:14:19.004Z,20.6
2018-07-24T03:15:34.908Z,21.5
2018-07-24T03:16:50.800Z,19.5
2018-07-24T03:18:06.696Z,22.200001
2018-07-24T03:19:22.636Z,20.6
2018-07-24T03:20:38.522Z,20.5
2018-07-24T03:21:54.417Z,21.1
2018-07-24T03:23:10.310Z,20.6
2018-07-24T03:24:26.214Z,20.9
2018-07-24T03:25:42.150Z,20.4
2018-07-24T03:26:58.063Z,21.799999
2018-07-24T03:28:13.998Z,20.6
2018-07-24T03:29:29.902Z,21.299999
2018-07-24T03:30:45.832Z,20.799999
2018-07-24T03:32:01.709Z,21.200001
2018-07-24T03:33:17.561Z,21.9
2018-07-24T03:34:33.479Z,21.200001
2018-07-24T03:35:49.407Z,21.799999
2018-07-24T03:37:05.304Z,23
2018-07-24T03:38:21.235Z,21.6
2018-07-24T03:39:37.150Z,21.799999
2018-07-24T03:40:53.034Z,22.5
2018-07-24T03:42:08.916Z,22.4
2018-07-24T03:43:24.804Z,22.1
2018-07-24T03:44:40.677Z,22.799999
2018-07-24T03:45:56.597Z,23.299999
2018-07-24T03:47:12.496Z,22.4
2018-07-24T03:48:28.394Z,22.200001
2018-07-24T03:49:44.295Z,22.9
2018-07-24T03:51:00.177Z,22.700001
2018-07-24T03:52:16.111Z,22.6
2018-07-24T03:53:31.988Z,22.200001
2018-07-24T03:54:47.882Z,21.9
2018-07-24T03:56:03.784Z,22.9
2018-07-24T03:57:19.652Z,22.200001
2018-07-24T03:58:35.543Z,22
2018-07-24T03:59:51.486Z,22.9
2018-07-24T04:01:07.424Z,22.799999
2018-07-24T04:02:23.412Z,23.700001
2018-07-24T04:03:39.328Z,23.700001
2018-07-24T04:04:55.254Z,23
2018-07-24T04:06:11.127Z,22.9
2018-07-24T04:07:27.086Z,23.9
2018-07-24T04:08:42.965Z,22.700001
2018-07-24T04:09:58.844Z,24.5
2018-07-24T04:11:14.792Z,23.5
2018-07-24T04:12:30.737Z,23
2018-07-24T04:13:46.635Z,23.299999
2018-07-24T04:15:02.558Z,22.200001
2018-07-24T04:16:18.461Z,22.1
2018-07-24T04:17:34.361Z,22.200001
2018-07-24T04:18:50.287Z,22.700001
2018-07-24T04:20:06.199Z,21.9
2018-07-24T04:21:22.090Z,22.5
2018-07-24T04:22:37.967Z,22.200001
2018-07-24T04:23:53.878Z,23.5
2018-07-24T04:25:09.805Z,22.9
2018-07-24T04:26:25.674Z,24.200001
2018-07-24T04:27:41.583Z,22.299999
2018-07-24T04:28:57.474Z,22.700001
2018-07-24T04:30:13.352Z,25.200001
2018-07-24T04:31:29.248Z,23
2018-07-24T04:32:45.174Z,24.299999
2018-07-24T04:34:01.105Z,22.9
2018-07-24T04:35:17.073Z,23.200001
2018-07-24T04:36:32.964Z,23
2018-07-24T04:37:48.879Z,23.5
2018-07-24T04:39:04.817Z,23.200001
2018-07-24T04:40:20.869Z,22.6
2018-07-24T04:41:36.638Z,22.799999
2018-07-24T04:42:52.510Z,23.700001
2018-07-24T04:44:08.419Z,25.1
2018-07-24T04:45:24.298Z,23.4
2018-07-24T04:46:40.215Z,24.299999
2018-07-24T04:47:56.139Z,21.700001
2018-07-24T04:49:12.059Z,22.9
2018-07-24T04:50:28.013Z,23.200001
2018-07-24T04:51:43.921Z,22.5
2018-07-24T04:52:59.840Z,23.299999
2018-07-24T04:54:15.897Z,22.5
2018-07-24T04:55:31.768Z,22.5
2018-07-24T04:56:47.661Z,21.6
2018-07-24T04:58:03.532Z,22.5
2018-07-24T04:59:19.437Z,22.200001
2018-07-24T05:00:35.344Z,23
2018-07-24T05:01:51.235Z,21.4
2018-07-24T05:03:07.201Z,22.1
2018-07-24T05:04:23.120Z,21.4
2018-07-24T05:05:39.014Z,22.1
2018-07-24T05:06:54.895Z,22.700001
2018-07-24T05:08:10.806Z,22.1
2018-07-24T05:09:26.765Z,22
2018-07-24T05:10:42.692Z,22.9
2018-07-24T05:11:58.616Z,21.700001
2018-07-24T05:13:14.529Z,23.299999
2018-07-24T05:14:30.556Z,21.5
2018-07-24T05:15:46.515Z,22.299999
2018-07-24T05:17:02.455Z,22.1
2018-07-24T05:18:18.361Z,22.799999
2018-07-24T05:19:34.257Z,21.5
2018-07-24T05:20:50.184Z,22.4
2018-07-24T05:22:06.186Z,22.5
2018-07-24T05:23:22.084Z,22.1
2018-07-24T05:24:38.159Z,22.6
2018-07-24T05:25:54.085Z,21.799999
2018-07-24T05:27:09.934Z,22.799999
2018-07-24T05:28:25.860Z,22.799999
2018-07-24T05:29:41.742Z,22.1
2018-07-24T05:30:57.708Z,20.299999
2018-07-24T05:32:13.592Z,21.299999
2018-07-24T05:33:29.535Z,21.4
2018-07-24T05:34:45.437Z,21.200001
2018-07-24T05:36:01.394Z,22.1
2018-07-24T05:37:17.308Z,22.5
2018-07-24T05:38:33.239Z,20.200001
2018-07-24T05:39:49.215Z,21.6
2018-07-24T05:41:05.207Z,21.200001
2018-07-24T05:42:21.161Z,21.4
2018-07-24T05:43:37.120Z,22.1
2018-07-24T05:44:53.042Z,22
2018-07-24T05:46:09.018Z,20.6
2018-07-24T05:47:24.956Z,21.299999
2018-07-24T05:48:40.874Z,20.5
2018-07-24T05:49:56.815Z,21.200001
2018-07-24T05:51:12.724Z,22.9
2018-07-24T05:52:28.642Z,20.700001
2018-07-24T05:53:44.536Z,21
2018-07-24T05:55:00.451Z,21.1
2018-07-24T05:56:16.349Z,19.4
2018-07-24T05:57:32.282Z,19.9
2018-07-24T05:58:48.175Z,18.9
2018-07-24T06:00:04.121Z,19.299999
2018-07-24T06:01:20.058Z,19.799999
2018-07-24T06:02:35.967Z,18.799999
2018-07-24T06:03:51.838Z,19
2018-07-24T06:05:07.730Z,18.6
2018-07-24T06:06:23.636Z,18.6
2018-07-24T06:07:39.531Z,19.1
2018-07-24T06:08:55.472Z,18.9
2018-07-24T06:10:11.411Z,18.4
2018-07-24T06:11:27.339Z,18.299999
2018-07-24T06:12:43.350Z,17.4
2018-07-24T06:13:59.260Z,16.4
2018-07-24T06:15:15.171Z,17.6
2018-07-24T06:16:31.100Z,15.9
2018-07-24T06:17:47.006Z,15.9
2018-07-24T06:19:02.943Z,15.1
2018-07-24T06:20:18.851Z,15
2018-07-24T06:21:34.788Z,13.3
2018-07-24T06:22:50.682Z,13.1
2018-07-24T06:24:06.594Z,13.7
2018-07-24T06:25:22.534Z,13.2
2018-07-24T06:26:38.458Z,13.1
2018-07-24T06:27:54.410Z,13.2
2018-07-24T06:29:10.367Z,13.3
2018-07-24T06:30:26.245Z,12.3
2018-07-24T06:31:42.154Z,13.2
2018-07-24T06:32:58.031Z,12.5
2018-07-24T06:34:13.966Z,12.5
2018-07-24T06:35:29.858Z,12.1
2018-07-24T06:36:45.790Z,11.2
2018-07-24T06:38:01.687Z,11
2018-07-24T06:39:17.664Z,12.2
2018-07-24T06:40:33.566Z,11.4
2018-07-24T06:41:49.433Z,11.8
2018-07-24T06:43:05.358Z,11.9
2018-07-24T06:44:21.374Z,11.2
2018-07-24T06:45:37.199Z,11.5
2018-07-24T06:46:53.098Z,11.5
2018-07-24T06:48:08.997Z,10.9
2018-07-24T06:49:24.937Z,11.5
2018-07-24T06:50:40.865Z,10.3
2018-07-24T06:51:56.790Z,11.5
2018-07-24T06:53:12.692Z,11.4
2018-07-24T06:54:28.641Z,11.7
2018-07-24T06:55:44.615Z,11.7
2018-07-24T06:57:00.547Z,11.2
2018-07-24T06:58:16.455Z,10.6
2018-07-24T06:59:32.429Z,10.3
2018-07-24T07:00:48.378Z,10.9
2018-07-24T07:02:04.279Z,10.8
2018-07-24T07:03:20.263Z,10.8
2018-07-24T07:04:36.105Z,10.3
2018-07-24T07:05:52.026Z,10.7
2018-07-24T07:07:07.943Z,10.4
2018-07-24T07:08:23.822Z,10
2018-07-24T07:09:39.685Z,10.5
2018-07-24T07:10:55.658Z,10.8
2018-07-24T07:12:11.557Z,10.8
2018-07-24T07:13:27.530Z,10.7
2018-07-24T07:14:43.366Z,10.3
2018-07-24T07:15:59.302Z,10.6
2018-07-24T07:17:15.232Z,11.1
2018-07-24T07:18:31.148Z,11.4
2018-07-24T07:19:47.083Z,11.1
2018-07-24T07:21:03.981Z,11.1
2018-07-24T07:22:19.886Z,13.4
2018-07-24T07:23:35.782Z,11.1
2018-07-24T07:24:51.715Z,10.7
2018-07-24T07:26:07.611Z,10.9
2018-07-24T07:27:23.505Z,11.1
2018-07-24T07:28:39.388Z,11.1
2018-07-24T07:29:55.340Z,11.1
2018-07-24T07:31:11.243Z,10
2018-07-24T07:32:27.155Z,10.3
2018-07-24T07:33:43.032Z,10.5
2018-07-24T07:34:58.946Z,10.5
2018-07-24T07:36:14.872Z,9.2
2018-07-24T07:37:30.773Z,9.3
2018-07-24T07:38:46.645Z,9
2018-07-24T07:40:02.571Z,9.2
2018-07-24T07:41:18.480Z,9.9
2018-07-24T07:42:34.422Z,10
2018-07-24T07:43:50.368Z,9.2
2018-07-24T07:45:06.196Z,9
2018-07-24T07:46:22.122Z,9.6
2018-07-24T07:47:38.060Z,9.2
2018-07-24T07:48:53.971Z,9.3
2018-07-24T07:50:09.878Z,9.4
2018-07-24T07:51:25.943Z,9
2018-07-24T07:52:41.824Z,10.5
2018-07-24T07:53:57.707Z,9.4
2018-07-24T07:55:13.615Z,9.1
2018-07-24T07:56:29.564Z,9.5
2018-07-24T07:57:45.513Z,10.2
2018-07-24T07:59:01.399Z,8.4
2018-07-24T08:00:17.323Z,8.4
2018-07-24T08:01:33.232Z,8.9
2018-07-24T08:02:49.170Z,8.4
2018-07-24T08:04:05.067Z,9.5
2018-07-24T08:05:20.991Z,9.2
2018-07-24T08:06:36.907Z,8.9
2018-07-24T08:07:52.877Z,9.2
2018-07-24T08:09:08.812Z,9.5
2018-07-24T08:10:24.708Z,10.3
2018-07-24T08:11:40.612Z,9.5
2018-07-24T08:12:56.496Z,9.5
2018-07-24T08:14:12.504Z,9.2
2018-07-24T08:15:28.468Z,8.3
2018-07-24T08:16:44.370Z,8.9
2018-07-24T08:18:00.285Z,9.1
2018-07-24T08:19:16.240Z,9.4
2018-07-24T08:20:32.132Z,9.8
2018-07-24T08:21:48.025Z,9.9
2018-07-24T08:24:44.636Z,11.6
2018-07-24T08:26:00.537Z,10.6
2018-07-24T08:27:16.470Z,10.2
2018-07-24T08:28:32.430Z,10.2
2018-07-24T08:29:48.359Z,9.3
2018-07-24T08:31:04.326Z,10.6
2018-07-24T08:32:20.241Z,10.2
2018-07-24T08:33:36.152Z,9.9
2018-07-24T08:34:52.045Z,9.6
2018-07-24T08:36:07.959Z,10.1
2018-07-24T08:37:23.861Z,10.6
2018-07-24T08:38:39.765Z,10.4
2018-07-24T08:39:55.661Z,10.6
2018-07-24T08:41:11.561Z,11.1
2018-07-24T08:42:27.493Z,11.1
2018-07-24T08:43:43.429Z,10.3
2018-07-24T08:44:59.380Z,9.8
2018-07-24T08:46:16.323Z,10.8
2018-07-24T08:47:32.221Z,10.7
2018-07-24T08:48:48.245Z,10.7
2018-07-24T08:50:04.221Z,11
2018-07-24T08:51:20.132Z,10.8
2018-07-24T08:52:36.150Z,9.8
2018-07-24T08:53:52.280Z,10.2
2018-07-24T08:55:08.271Z,10.6
2018-07-24T08:56:23.908Z,10.3
2018-07-24T08:57:39.853Z,10.8
2018-07-24T08:58:55.789Z,10.5
2018-07-24T09:00:11.746Z,11.4
2018-07-24T09:01:27.649Z,10.7
2018-07-24T09:02:43.535Z,11.2
2018-07-24T09:03:59.465Z,11.5
2018-07-24T09:05:15.425Z,11.2
2018-07-24T09:06:31.329Z,11.1
2018-07-24T09:07:47.239Z,11.4
2018-07-24T09:09:03.146Z,10.8
2018-07-24T09:10:19.093Z,11
2018-07-24T09:11:35.028Z,11
2018-07-24T09:12:50.956Z,11
2018-07-24T09:14:06.838Z,10.9
2018-07-24T09:15:22.757Z,10.4
2018-07-24T09:16:38.746Z,11.2
2018-07-24T09:17:54.608Z,10.3
2018-07-24T09:19:10.530Z,10.6
2018-07-24T09:20:26.406Z,10.4
2018-07-24T09:21:42.315Z,10.7
2018-07-24T09:22:58.350Z,11.3
2018-07-24T09:24:14.292Z,10.8
2018-07-24T09:25:30.218Z,10.9
2018-07-24T09:26:46.142Z,11.4
2018-07-24T09:28:03.024Z,11.3
2018-07-24T09:29:18.915Z,11.1
2018-07-24T09:30:34.878Z,11.3
2018-07-24T09:31:50.727Z,11.2
2018-07-24T09:33:06.619Z,11
2018-07-24T09:34:22.542Z,11.4
2018-07-24T09:35:38.495Z,12
2018-07-24T09:36:54.424Z,11.8
2018-07-24T09:38:10.320Z,10.8
2018-07-24T09:39:26.197Z,10.9
2018-07-24T09:40:42.095Z,10.8
2018-07-24T09:41:58.031Z,11.5
2018-07-24T09:43:13.943Z,11.2
2018-07-24T09:44:29.927Z,11.8
2018-07-24T09:45:45.845Z,11.2
2018-07-24T09:47:01.773Z,11.7
2018-07-24T09:48:17.665Z,11.8
2018-07-24T09:49:33.594Z,10.8
2018-07-24T09:50:49.566Z,11.7
2018-07-24T09:52:05.527Z,11.1
2018-07-24T09:53:21.462Z,11.7
2018-07-24T09:54:37.360Z,11.5
2018-07-24T09:55:53.298Z,11.6
2018-07-24T09:57:09.232Z,12
2018-07-24T09:58:25.109Z,10.9
2018-07-24T09:59:41.015Z,10.7
2018-07-24T10:00:56.943Z,11.2
2018-07-24T10:02:12.872Z,11.2
2018-07-24T10:03:28.828Z,11.9
2018-07-24T10:04:44.776Z,11.7
2018-07-24T10:06:01.690Z,11.1
2018-07-24T10:07:17.631Z,11.2
2018-07-24T10:08:33.537Z,11.3
2018-07-24T10:09:49.424Z,10.8
2018-07-24T10:11:05.393Z,10.3
2018-07-24T10:12:21.251Z,10.9
2018-07-24T10:13:37.180Z,10.9
2018-07-24T10:14:53.085Z,11.2
2018-07-24T10:16:08.988Z,10.2
2018-07-24T10:17:23.894Z,10.3
2018-07-24T10:18:39.842Z,9.7
2018-07-24T10:19:55.747Z,11.6
2018-07-24T10:21:11.665Z,11.6
2018-07-24T10:22:27.583Z,11.2
2018-07-24T10:23:43.471Z,11.3
2018-07-24T10:24:59.374Z,11.7
2018-07-24T10:26:15.311Z,11.3
2018-07-24T10:27:31.205Z,11.7
2018-07-24T10:28:47.144Z,10.2
2018-07-24T10:30:03.026Z,11.5
2018-07-24T10:31:18.938Z,10.6
2018-07-24T10:32:34.848Z,11.2
2018-07-24T10:33:50.747Z,11.1
2018-07-24T10:35:06.622Z,10.9
2018-07-24T10:36:22.572Z,11.5
2018-07-24T10:37:38.384Z,11
2018-07-24T10:38:54.287Z,12.3
2018-07-24T10:40:10.229Z,11.3
2018-07-24T10:41:26.101Z,12.1
2018-07-24T10:42:42.015Z,10.8
2018-07-24T10:43:57.975Z,11.5
2018-07-24T10:45:13.903Z,11
2018-07-24T10:46:29.801Z,11.5
2018-07-24T10:47:45.726Z,11.2
2018-07-24T10:49:02.646Z,11.2
2018-07-24T10:50:18.652Z,11.6
2018-07-24T10:51:35.533Z,11.5
2018-07-24T10:52:51.531Z,10.5
2018-07-24T10:54:07.425Z,10.3
2018-07-24T10:57:04.113Z,11
2018-07-24T11:00:01.243Z,10.8
2018-07-24T11:01:17.535Z,11.1
2018-07-24T11:05:55.278Z,9.9
2018-07-24T11:07:11.559Z,11.6
2018-07-24T11:08:27.495Z,12
2018-07-24T11:11:24.122Z,11.8
2018-07-24T11:12:40.204Z,11.7
2018-07-24T11:13:56.122Z,11.3
2018-07-24T20:21:14.877Z,0
2018-07-24T20:22:30.822Z,7.2
2018-07-24T20:23:47.007Z,6.5
2018-07-24T20:25:02.773Z,6.6
2018-07-24T20:26:18.699Z,6.5
2018-07-24T20:27:34.734Z,6.6
2018-07-24T20:28:50.793Z,6.9
2018-07-24T20:30:06.692Z,7.1
2018-07-24T20:31:22.632Z,8.9
2018-07-24T20:32:38.607Z,6.4
2018-07-24T20:33:54.595Z,6.2
2018-07-24T20:35:10.602Z,7
2018-07-24T20:36:26.498Z,6.6
2018-07-24T20:37:43.472Z,6.9
2018-07-24T20:38:59.451Z,10.1
2018-07-24T20:41:56.089Z,6.7
2018-07-24T20:43:12.078Z,7.1
2018-07-24T20:44:28.130Z,6.9
2018-07-24T20:45:44.115Z,6.5
2018-07-24T20:47:00.119Z,6.8
2018-07-24T20:48:16.151Z,6.7
2018-07-24T20:49:32.118Z,6.4
2018-07-24T20:50:48.017Z,9.1
2018-07-24T20:52:04.173Z,7.6
2018-07-24T20:53:20.204Z,7.7
2018-07-24T20:54:36.190Z,6.9
2018-07-24T20:55:52.234Z,6.1
2018-07-24T20:57:08.322Z,6.9
2018-07-24T20:58:24.307Z,7.2
2018-07-24T20:59:40.268Z,6.6
2018-07-24T21:00:56.178Z,7.6
2018-07-24T21:02:12.184Z,7.8
2018-07-24T21:03:28.203Z,7.1
2018-07-24T21:04:44.094Z,7
2018-07-24T21:06:03.838Z,6.8
2018-07-24T21:07:19.807Z,7.2
2018-07-24T21:08:35.763Z,6.6
2018-07-24T21:09:51.922Z,6.8
2018-07-24T21:11:07.858Z,6.7
2018-07-24T21:12:23.830Z,6.7
2018-07-24T21:13:39.763Z,6.2
2018-07-24T21:14:55.759Z,6.7
2018-07-24T21:16:11.741Z,6.7
2018-07-24T21:17:27.709Z,7.1
2018-07-24T21:18:44.602Z,7
2018-07-24T21:20:00.592Z,6.9
2018-07-24T21:21:16.559Z,7.4
2018-07-24T21:22:32.495Z,7.1
2018-07-24T21:23:48.377Z,6.6
2018-07-24T21:25:04.414Z,6.3
2018-07-24T21:26:20.442Z,6.6
2018-07-24T21:27:36.365Z,6.4
2018-07-24T21:28:52.313Z,6.7
2018-07-24T21:30:08.259Z,6.2
2018-07-24T21:31:24.201Z,7.5
2018-07-24T21:32:40.169Z,6.8
2018-07-24T21:33:56.110Z,6.4
2018-07-24T21:35:12.045Z,6.7
2018-07-24T21:36:28.049Z,6.7
2018-07-24T21:37:43.937Z,7.1
2018-07-24T21:38:59.851Z,6.6
2018-07-24T21:40:15.837Z,7
2018-07-24T21:41:31.826Z,6.6
2018-07-24T21:42:47.840Z,7.2
2018-07-24T21:44:03.669Z,6.7
2018-07-24T21:45:19.553Z,6.8
2018-07-24T21:46:35.456Z,7.5
2018-07-24T21:47:51.348Z,7.3
2018-07-24T21:49:07.298Z,6.9
2018-07-24T21:50:23.205Z,8.2
2018-07-24T21:51:39.094Z,6.9
2018-07-24T21:52:55.090Z,6.2
2018-07-24T21:54:11.065Z,6.4
2018-07-24T21:55:26.998Z,6.9
2018-07-24T21:56:42.986Z,7.4
2018-07-24T21:57:58.915Z,6.6
2018-07-24T21:59:14.884Z,7.5
2018-07-24T22:00:30.900Z,7
2018-07-24T22:01:46.883Z,6.6
2018-07-24T22:03:02.907Z,7.1
2018-07-24T22:04:18.892Z,7.5
2018-07-24T22:05:34.874Z,8.2
2018-07-24T22:06:50.875Z,7.2
2018-07-24T22:08:06.844Z,8.2
2018-07-24T22:09:22.821Z,7.4
2018-07-24T22:10:38.746Z,7.7
2018-07-24T22:11:54.690Z,8.2
2018-07-24T22:13:10.612Z,9.1
2018-07-24T22:14:26.808Z,9.9
2018-07-24T22:15:42.808Z,8.3
2018-07-24T22:16:58.837Z,9.3
2018-07-24T22:18:14.792Z,8.6
2018-07-24T22:19:31.220Z,8.2
2018-07-24T22:20:47.537Z,7.9
2018-07-24T22:22:03.507Z,7.4
2018-07-24T22:23:20.301Z,7.3
2018-07-24T22:24:36.175Z,7.3
2018-07-24T22:25:52.124Z,7.8
2018-07-24T22:27:08.022Z,7.3
2018-07-24T22:28:23.895Z,7
2018-07-24T22:29:40.814Z,7.2
2018-07-24T22:30:56.726Z,7.1
2018-07-24T22:32:12.637Z,7.7
2018-07-24T22:33:28.621Z,7.4
2018-07-24T22:34:44.683Z,7.4
2018-07-24T22:36:00.630Z,7.5
2018-07-24T22:37:16.598Z,8.5
2018-07-24T22:38:32.547Z,7.4
2018-07-24T22:39:48.475Z,11.5
2018-07-24T22:41:04.460Z,7.5
2018-07-24T22:42:20.574Z,7.5
2018-07-24T22:43:36.567Z,8.3
2018-07-24T22:44:53.294Z,7.1
2018-07-24T22:46:09.254Z,7.5
2018-07-24T22:47:25.253Z,6.9
2018-07-24T22:50:26.279Z,6.8
2018-07-24T22:51:42.218Z,7.4
2018-07-24T22:52:58.113Z,7.4
2018-07-24T22:54:14.044Z,7.2
2018-07-24T22:55:29.933Z,7.3
2018-07-24T22:56:45.858Z,7.2
2018-07-24T22:58:01.758Z,7.5
2018-07-24T22:59:17.634Z,7.8
2018-07-24T23:00:33.498Z,8.8
2018-07-24T23:01:49.405Z,7.6
2018-07-24T23:03:05.258Z,7.4
2018-07-24T23:04:21.189Z,8.5
2018-07-24T23:05:37.153Z,7.2
2018-07-24T23:06:53.077Z,7.5
2018-07-24T23:08:09.021Z,7.9
2018-07-24T23:09:25.006Z,8.1
2018-07-24T23:10:40.922Z,7.5
2018-07-24T23:11:56.803Z,7.4
2018-07-24T23:13:12.700Z,7.5
2018-07-24T23:14:28.592Z,7.5
2018-07-24T23:15:44.468Z,7.4
2018-07-24T23:17:00.378Z,8
2018-07-24T23:18:16.308Z,7.5
2018-07-24T23:19:32.214Z,7.7
2018-07-24T23:20:48.143Z,7.3
2018-07-24T23:22:04.040Z,7.3
2018-07-24T23:23:19.926Z,7.9
2018-07-24T23:24:35.843Z,7.5
2018-07-24T23:25:51.742Z,8
2018-07-24T23:27:07.670Z,7.8
2018-07-24T23:28:23.558Z,7.8
2018-07-24T23:29:39.561Z,7.9
2018-07-24T23:30:55.424Z,7.9
2018-07-24T23:32:11.304Z,8.1
2018-07-24T23:33:27.191Z,7.9
2018-07-24T23:34:43.088Z,7.5
2018-07-24T23:35:59.016Z,7.6
2018-07-24T23:37:14.906Z,8.3
2018-07-24T23:38:30.832Z,7.9
2018-07-24T23:39:46.683Z,8
2018-07-24T23:41:02.607Z,8.9
2018-07-24T23:42:18.499Z,8.1
2018-07-24T23:43:34.380Z,7.6
2018-07-24T23:44:50.263Z,9.1
2018-07-24T23:46:06.157Z,7.8
2018-07-24T23:47:22.048Z,8
2018-07-24T23:48:37.944Z,7.3
2018-07-24T23:49:53.831Z,7.5
2018-07-24T23:51:09.754Z,7.3
2018-07-24T23:52:25.677Z,7.8
2018-07-24T23:53:41.613Z,8
2018-07-24T23:54:57.521Z,7.5
2018-07-24T23:56:13.496Z,8.3
2018-07-24T23:57:29.378Z,20.299999
2018-07-24T23:58:45.260Z,7.9
